SBI601 UNKL-UNNT
Flight info
| Callsign | SBI601 |
|---|---|
| Flight time | N/A |
| Altitude | 34000 |
| Route | APRUS2E APRUS B926 NATIR NATIR1K |
| Aircraft | A320/M-SDE3FGHIRWY/LB1 |
Departure
| Time | 2026-05-06 20:05 |
|---|---|
| Airport | Krasnoyarsk International Airport (UNKL) |
Arrival
| Time | N/A |
|---|---|
| Airport | Novosibirsk Tolmachevo Airport (UNNT) |
| Time | Latitude | Longitude | Altitude | Speed | Heading |
|---|---|---|---|---|---|
| 2026-05-06 19:50 | 56.17946 | 92.48542 | 953 ft | 0 kts | 23° |
| 2026-05-06 19:57 | 56.17933 | 92.48531 | 953 ft | 2 kts | 24° |
| 2026-05-06 19:57 | 56.17918 | 92.48521 | 956 ft | 2 kts | 14° |
| 2026-05-06 19:57 | 56.17902 | 92.48515 | 954 ft | 2 kts | 9° |
| 2026-05-06 19:57 | 56.17885 | 92.48511 | 956 ft | 2 kts | 1° |
| 2026-05-06 19:58 | 56.17869 | 92.48512 | 956 ft | 2 kts | 329° |
| 2026-05-06 19:58 | 56.17864 | 92.48516 | 953 ft | 0 kts | 292° |
| 2026-05-06 19:59 | 56.17865 | 92.48512 | 956 ft | 3 kts | 292° |
| 2026-05-06 20:00 | 56.17841 | 92.48465 | 955 ft | 9 kts | 207° |
| 2026-05-06 20:00 | 56.17745 | 92.48424 | 955 ft | 10 kts | 140° |
| 2026-05-06 20:00 | 56.17696 | 92.48589 | 956 ft | 24 kts | 114° |
| 2026-05-06 20:00 | 56.17616 | 92.48920 | 953 ft | 30 kts | 113° |
| 2026-05-06 20:01 | 56.17536 | 92.49267 | 957 ft | 30 kts | 112° |
| 2026-05-06 20:01 | 56.17454 | 92.49616 | 955 ft | 30 kts | 113° |
| 2026-05-06 20:01 | 56.17370 | 92.49966 | 955 ft | 31 kts | 113° |
| 2026-05-06 20:01 | 56.17285 | 92.50319 | 956 ft | 31 kts | 113° |
| 2026-05-06 20:02 | 56.17202 | 92.50677 | 957 ft | 31 kts | 113° |
| 2026-05-06 20:02 | 56.17116 | 92.51037 | 957 ft | 31 kts | 114° |
| 2026-05-06 20:02 | 56.17029 | 92.51397 | 955 ft | 31 kts | 113° |
| 2026-05-06 20:02 | 56.16943 | 92.51758 | 955 ft | 31 kts | 113° |
| 2026-05-06 20:03 | 56.16848 | 92.52012 | 954 ft | 21 kts | 163° |
| 2026-05-06 20:03 | 56.16829 | 92.52018 | 955 ft | 0 kts | 173° |
| 2026-05-06 20:03 | 56.16827 | 92.52018 | 955 ft | 2 kts | 173° |
| 2026-05-06 20:03 | 56.16677 | 92.52011 | 954 ft | 12 kts | 235° |
| 2026-05-06 20:04 | 56.16687 | 92.51887 | 955 ft | 11 kts | 292° |
| 2026-05-06 20:04 | 56.16734 | 92.51687 | 955 ft | 50 kts | 293° |
| 2026-05-06 20:04 | 56.16958 | 92.50746 | 954 ft | 114 kts | 292° |
| 2026-05-06 20:04 | 56.17340 | 92.49133 | 954 ft | 164 kts | 293° |
| 2026-05-06 20:05 | 56.17804 | 92.47238 | 1465 ft | 164 kts | 294° |
| 2026-05-06 20:05 | 56.18261 | 92.45351 | 2054 ft | 165 kts | 291° |
| 2026-05-06 20:05 | 56.18727 | 92.43365 | 2420 ft | 183 kts | 290° |
| 2026-05-06 20:05 | 56.19250 | 92.41123 | 2687 ft | 207 kts | 291° |
| 2026-05-06 20:06 | 56.19834 | 92.38631 | 3048 ft | 231 kts | 291° |
| 2026-05-06 20:06 | 56.20488 | 92.35852 | 3515 ft | 251 kts | 291° |
| 2026-05-06 20:06 | 56.21182 | 92.32916 | 4308 ft | 258 kts | 291° |
| 2026-05-06 20:06 | 56.21732 | 92.29848 | 5137 ft | 261 kts | 272° |
| 2026-05-06 20:07 | 56.21495 | 92.26637 | 6076 ft | 259 kts | 253° |
| 2026-05-06 20:07 | 56.20853 | 92.23611 | 7023 ft | 259 kts | 246° |
| 2026-05-06 20:07 | 56.20095 | 92.20675 | 7901 ft | 260 kts | 245° |
| 2026-05-06 20:07 | 56.19319 | 92.17722 | 8765 ft | 262 kts | 245° |
| 2026-05-06 20:08 | 56.18571 | 92.14756 | 9613 ft | 264 kts | 246° |
| 2026-05-06 20:08 | 56.17839 | 92.11691 | 10264 ft | 274 kts | 248° |
| 2026-05-06 20:08 | 56.17085 | 92.08393 | 10502 ft | 297 kts | 248° |
| 2026-05-06 20:08 | 56.16307 | 92.04866 | 10998 ft | 308 kts | 249° |
| 2026-05-06 20:09 | 56.15524 | 92.01249 | 11690 ft | 313 kts | 249° |
| 2026-05-06 20:09 | 56.14735 | 91.97587 | 12423 ft | 317 kts | 249° |
| 2026-05-06 20:09 | 56.13933 | 91.93873 | 13160 ft | 320 kts | 249° |
| 2026-05-06 20:09 | 56.13121 | 91.90122 | 13857 ft | 324 kts | 250° |
| 2026-05-06 20:10 | 56.12309 | 91.86384 | 14473 ft | 327 kts | 249° |
| 2026-05-06 20:10 | 56.11478 | 91.82554 | 15094 ft | 331 kts | 249° |
| 2026-05-06 20:10 | 56.10637 | 91.78686 | 15719 ft | 334 kts | 249° |
| 2026-05-06 20:10 | 56.09788 | 91.74780 | 16328 ft | 338 kts | 249° |
| 2026-05-06 20:11 | 56.08926 | 91.70826 | 16940 ft | 341 kts | 249° |
| 2026-05-06 20:11 | 56.08057 | 91.66863 | 17464 ft | 347 kts | 249° |
| 2026-05-06 20:11 | 56.07167 | 91.62819 | 18039 ft | 351 kts | 249° |
| 2026-05-06 20:11 | 56.06263 | 91.58729 | 18581 ft | 354 kts | 249° |
| 2026-05-06 20:12 | 56.05352 | 91.54611 | 19145 ft | 356 kts | 249° |
| 2026-05-06 20:12 | 56.04437 | 91.50479 | 19722 ft | 358 kts | 249° |
| 2026-05-06 20:12 | 56.03518 | 91.46327 | 20295 ft | 359 kts | 249° |
| 2026-05-06 20:12 | 56.02611 | 91.42243 | 20993 ft | 357 kts | 248° |
| 2026-05-06 20:13 | 56.01682 | 91.38067 | 21612 ft | 358 kts | 248° |
| 2026-05-06 20:13 | 56.00772 | 91.33992 | 22181 ft | 359 kts | 248° |
| 2026-05-06 20:13 | 55.99841 | 91.29822 | 22723 ft | 362 kts | 248° |
| 2026-05-06 20:13 | 55.98908 | 91.25633 | 23265 ft | 364 kts | 248° |
| 2026-05-06 20:14 | 55.98150 | 91.21291 | 23738 ft | 367 kts | 256° |
| 2026-05-06 20:14 | 55.97631 | 91.16813 | 24163 ft | 369 kts | 257° |
| 2026-05-06 20:14 | 55.97108 | 91.12318 | 24608 ft | 371 kts | 256° |
| 2026-05-06 20:14 | 55.96575 | 91.07774 | 24994 ft | 374 kts | 256° |
| 2026-05-06 20:15 | 55.96036 | 91.03204 | 25389 ft | 376 kts | 256° |
| 2026-05-06 20:15 | 55.95501 | 90.98673 | 25784 ft | 378 kts | 256° |
| 2026-05-06 20:15 | 55.94956 | 90.94069 | 26176 ft | 380 kts | 256° |
| 2026-05-06 20:15 | 55.94406 | 90.89443 | 26568 ft | 381 kts | 256° |
| 2026-05-06 20:16 | 55.93854 | 90.84802 | 26938 ft | 383 kts | 256° |
| 2026-05-06 20:16 | 55.93295 | 90.80135 | 27312 ft | 385 kts | 256° |
| 2026-05-06 20:16 | 55.92731 | 90.75460 | 27684 ft | 386 kts | 256° |
| 2026-05-06 20:16 | 55.92162 | 90.70752 | 28051 ft | 388 kts | 256° |
| 2026-05-06 20:17 | 55.91589 | 90.66048 | 28413 ft | 390 kts | 256° |
| 2026-05-06 20:17 | 55.91017 | 90.61360 | 28756 ft | 391 kts | 256° |
| 2026-05-06 20:17 | 55.90434 | 90.56603 | 29097 ft | 393 kts | 256° |
| 2026-05-06 20:17 | 55.89846 | 90.51815 | 29402 ft | 396 kts | 255° |
| 2026-05-06 20:18 | 55.89254 | 90.46999 | 29690 ft | 399 kts | 255° |
| 2026-05-06 20:18 | 55.88655 | 90.42145 | 29988 ft | 400 kts | 255° |
| 2026-05-06 20:18 | 55.88054 | 90.37288 | 30234 ft | 402 kts | 255° |
| 2026-05-06 20:18 | 55.87448 | 90.32403 | 30475 ft | 404 kts | 255° |
| 2026-05-06 20:19 | 55.86837 | 90.27501 | 30705 ft | 406 kts | 255° |
| 2026-05-06 20:19 | 55.86225 | 90.22626 | 30920 ft | 408 kts | 255° |
| 2026-05-06 20:19 | 55.85602 | 90.17669 | 31129 ft | 410 kts | 256° |
| 2026-05-06 20:19 | 55.84976 | 90.12702 | 31386 ft | 411 kts | 256° |
| 2026-05-06 20:20 | 55.84349 | 90.07739 | 31690 ft | 411 kts | 256° |
| 2026-05-06 20:20 | 55.83719 | 90.02761 | 31987 ft | 411 kts | 256° |
| 2026-05-06 20:20 | 55.83092 | 89.97811 | 32297 ft | 411 kts | 256° |
| 2026-05-06 20:20 | 55.82460 | 89.92827 | 32515 ft | 413 kts | 256° |
| 2026-05-06 20:21 | 55.81829 | 89.87896 | 32765 ft | 414 kts | 256° |
| 2026-05-06 20:21 | 55.81187 | 89.82907 | 33040 ft | 414 kts | 256° |
| 2026-05-06 20:21 | 55.80539 | 89.77884 | 33317 ft | 414 kts | 257° |
| 2026-05-06 20:21 | 55.79890 | 89.72876 | 33615 ft | 414 kts | 257° |
| 2026-05-06 20:22 | 55.79242 | 89.67888 | 33839 ft | 415 kts | 257° |
| 2026-05-06 20:22 | 55.78605 | 89.62996 | 33880 ft | 407 kts | 257° |
| 2026-05-06 20:22 | 55.77332 | 89.53282 | 33885 ft | 400 kts | 257° |
| 2026-05-06 20:23 | 55.76063 | 89.43648 | 33885 ft | 399 kts | 257° |
| 2026-05-06 20:23 | 55.74789 | 89.34039 | 33885 ft | 399 kts | 256° |
| 2026-05-06 20:24 | 55.73511 | 89.24496 | 33890 ft | 399 kts | 256° |
| 2026-05-06 20:24 | 55.72220 | 89.14905 | 33885 ft | 399 kts | 256° |
| 2026-05-06 20:25 | 55.70920 | 89.05339 | 33881 ft | 399 kts | 256° |
| 2026-05-06 20:25 | 55.69612 | 88.95748 | 33878 ft | 399 kts | 256° |
| 2026-05-06 20:26 | 55.68325 | 88.86216 | 33884 ft | 399 kts | 257° |
| 2026-05-06 20:26 | 55.67015 | 88.76634 | 33878 ft | 400 kts | 256° |
| 2026-05-06 20:27 | 55.65689 | 88.67062 | 33872 ft | 400 kts | 256° |
| 2026-05-06 20:27 | 55.64365 | 88.57527 | 33871 ft | 401 kts | 256° |
| 2026-05-06 20:28 | 55.63026 | 88.47935 | 33873 ft | 401 kts | 256° |
| 2026-05-06 20:28 | 55.61671 | 88.38331 | 33877 ft | 402 kts | 256° |
| 2026-05-06 20:29 | 55.60307 | 88.28737 | 33883 ft | 402 kts | 256° |
| 2026-05-06 20:29 | 55.58941 | 88.19142 | 33876 ft | 402 kts | 256° |
| 2026-05-06 20:30 | 55.56885 | 88.04781 | 33878 ft | 403 kts | 256° |
| 2026-05-06 20:31 | 55.55494 | 87.95161 | 33881 ft | 403 kts | 256° |
| 2026-05-06 20:31 | 55.54106 | 87.85619 | 33883 ft | 403 kts | 256° |
| 2026-05-06 20:32 | 55.52701 | 87.76016 | 33888 ft | 404 kts | 256° |
| 2026-05-06 20:32 | 55.51295 | 87.66394 | 33881 ft | 405 kts | 256° |
| 2026-05-06 20:33 | 55.49866 | 87.56774 | 33857 ft | 405 kts | 256° |
| 2026-05-06 20:33 | 55.48424 | 87.47171 | 33877 ft | 405 kts | 256° |
| 2026-05-06 20:34 | 55.46981 | 87.37586 | 33884 ft | 404 kts | 256° |
| 2026-05-06 20:34 | 55.45531 | 87.28018 | 33890 ft | 404 kts | 256° |
| 2026-05-06 20:35 | 55.44076 | 87.18468 | 33885 ft | 404 kts | 256° |
| 2026-05-06 20:35 | 55.42619 | 87.08979 | 33880 ft | 404 kts | 256° |
| 2026-05-06 20:36 | 55.41139 | 86.99412 | 33888 ft | 405 kts | 256° |
| 2026-05-06 20:36 | 55.39655 | 86.89840 | 33888 ft | 405 kts | 256° |
| 2026-05-06 20:37 | 55.38405 | 86.81789 | 33888 ft | 405 kts | 256° |